Wawota, Canada
Current Conditions -  °F | °C
As of 2:00 PM on Thursday 29 Jan 2015 (Local Time) from CYEN Reporting Station
Light Snow Light Snow  
Wind Chill: 18°   Ceiling: 1500
Heat Index: 18°   Visibility: 10mi
Dew Point: 12°   Wind: 3mph
Humidity: 79%   Direction: 30°NNE
Pressure: 30.45"   Gusts: NA
Location:  49.9°N, 102.02°W
Report Text: CYEN 292000Z 03003KT 10SM -SN OVC015 M08/M11 A3045 RMK SC7 HZSLP354
Loading
Personal Weather Stations






























Interactive Weather Map New forecast layout! Learn more

10-Day Weather Forecast

Advertisements
Track Severe Weather on mobile